sensor_id;sensor_type;location;lat;lon;timestamp;P1;durP1;ratioP1;P2;durP2;ratioP2
47147;SDS011;32900;47.498;8.738;2022-08-23T00:01:27;5.95;;;3.53;;
47147;SDS011;32900;47.498;8.738;2022-08-23T00:03:57;6.35;;;3.92;;
47147;SDS011;32900;47.498;8.738;2022-08-23T00:06:30;7.25;;;4.07;;
47147;SDS011;32900;47.498;8.738;2022-08-23T00:08:57;7.68;;;3.97;;
47147;SDS011;32900;47.498;8.738;2022-08-23T00:11:33;8.45;;;4.03;;
47147;SDS011;32900;47.498;8.738;2022-08-23T00:14:05;5.30;;;3.95;;
47147;SDS011;32900;47.498;8.738;2022-08-23T00:16:40;8.50;;;4.57;;
47147;SDS011;32900;47.498;8.738;2022-08-23T00:19:08;7.35;;;4.22;;
47147;SDS011;32900;47.498;8.738;2022-08-23T00:21:36;7.25;;;3.65;;
47147;SDS011;32900;47.498;8.738;2022-08-23T00:24:04;5.85;;;3.90;;
47147;SDS011;32900;47.498;8.738;2022-08-23T00:29:27;6.97;;;3.97;;
47147;SDS011;32900;47.498;8.738;2022-08-23T00:32:22;5.90;;;3.80;;
47147;SDS011;32900;47.498;8.738;2022-08-23T00:34:54;8.07;;;3.92;;
47147;SDS011;32900;47.498;8.738;2022-08-23T00:37:21;7.57;;;4.05;;
47147;SDS011;32900;47.498;8.738;2022-08-23T00:39:49;8.35;;;4.35;;
47147;SDS011;32900;47.498;8.738;2022-08-23T00:45:07;6.95;;;4.10;;
47147;SDS011;32900;47.498;8.738;2022-08-23T00:47:54;7.03;;;4.10;;
47147;SDS011;32900;47.498;8.738;2022-08-23T00:50:27;7.68;;;4.15;;
47147;SDS011;32900;47.498;8.738;2022-08-23T00:53:15;9.00;;;4.20;;
47147;SDS011;32900;47.498;8.738;2022-08-23T00:55:47;6.78;;;4.38;;
47147;SDS011;32900;47.498;8.738;2022-08-23T00:58:18;6.72;;;4.07;;
47147;SDS011;32900;47.498;8.738;2022-08-23T01:00:47;8.52;;;4.55;;
47147;SDS011;32900;47.498;8.738;2022-08-23T01:03:16;5.07;;;3.83;;
47147;SDS011;32900;47.498;8.738;2022-08-23T01:06:00;6.68;;;3.88;;
47147;SDS011;32900;47.498;8.738;2022-08-23T01:08:33;9.30;;;4.93;;
47147;SDS011;32900;47.498;8.738;2022-08-23T01:11:45;7.05;;;4.07;;
47147;SDS011;32900;47.498;8.738;2022-08-23T01:13:55;6.30;;;4.40;;
47147;SDS011;32900;47.498;8.738;2022-08-23T01:16:33;6.60;;;4.25;;
47147;SDS011;32900;47.498;8.738;2022-08-23T01:19:02;6.32;;;4.53;;
47147;SDS011;32900;47.498;8.738;2022-08-23T01:21:46;6.85;;;4.43;;
47147;SDS011;32900;47.498;8.738;2022-08-23T01:24:19;7.38;;;4.20;;
47147;SDS011;32900;47.498;8.738;2022-08-23T01:27:06;5.47;;;3.95;;
47147;SDS011;32900;47.498;8.738;2022-08-23T01:29:37;6.78;;;4.18;;
47147;SDS011;32900;47.498;8.738;2022-08-23T01:32:06;8.85;;;4.35;;
47147;SDS011;32900;47.498;8.738;2022-08-23T01:34:34;7.20;;;4.20;;
47147;SDS011;32900;47.498;8.738;2022-08-23T01:37:09;6.60;;;3.83;;
47147;SDS011;32900;47.498;8.738;2022-08-23T01:39:36;9.60;;;4.45;;
47147;SDS011;32900;47.498;8.738;2022-08-23T01:42:03;7.75;;;4.35;;
47147;SDS011;32900;47.498;8.738;2022-08-23T01:44:33;7.60;;;4.53;;
47147;SDS011;32900;47.498;8.738;2022-08-23T01:47:00;6.28;;;4.07;;
47147;SDS011;32900;47.498;8.738;2022-08-23T01:49:26;8.05;;;4.47;;
47147;SDS011;32900;47.498;8.738;2022-08-23T01:51:53;7.18;;;4.18;;
47147;SDS011;32900;47.498;8.738;2022-08-23T01:54:20;5.82;;;3.58;;
47147;SDS011;32900;47.498;8.738;2022-08-23T01:56:47;6.40;;;3.97;;
47147;SDS011;32900;47.498;8.738;2022-08-23T01:59:14;5.97;;;3.83;;
47147;SDS011;32900;47.498;8.738;2022-08-23T02:01:41;6.13;;;4.47;;
47147;SDS011;32900;47.498;8.738;2022-08-23T02:04:08;8.38;;;4.32;;
47147;SDS011;32900;47.498;8.738;2022-08-23T02:06:34;7.15;;;4.10;;
47147;SDS011;32900;47.498;8.738;2022-08-23T02:09:02;7.22;;;4.00;;
47147;SDS011;32900;47.498;8.738;2022-08-23T02:11:43;7.50;;;4.70;;
47147;SDS011;32900;47.498;8.738;2022-08-23T02:14:12;6.75;;;4.35;;
47147;SDS011;32900;47.498;8.738;2022-08-23T02:16:42;6.60;;;4.00;;
47147;SDS011;32900;47.498;8.738;2022-08-23T02:19:29;6.68;;;3.97;;
47147;SDS011;32900;47.498;8.738;2022-08-23T02:21:56;7.28;;;4.18;;
47147;SDS011;32900;47.498;8.738;2022-08-23T02:58:56;6.40;;;4.22;;
47147;SDS011;32900;47.498;8.738;2022-08-23T03:01:25;8.00;;;4.65;;
47147;SDS011;32900;47.498;8.738;2022-08-23T03:03:56;7.97;;;4.53;;
47147;SDS011;32900;47.498;8.738;2022-08-23T03:06:25;7.57;;;4.18;;
47147;SDS011;32900;47.498;8.738;2022-08-23T03:08:53;6.35;;;4.20;;
47147;SDS011;32900;47.498;8.738;2022-08-23T03:11:22;6.78;;;4.50;;
47147;SDS011;32900;47.498;8.738;2022-08-23T03:13:50;6.38;;;4.20;;
47147;SDS011;32900;47.498;8.738;2022-08-23T03:16:18;9.15;;;4.50;;
47147;SDS011;32900;47.498;8.738;2022-08-23T03:18:45;9.32;;;4.63;;
47147;SDS011;32900;47.498;8.738;2022-08-23T03:21:12;6.25;;;4.03;;
47147;SDS011;32900;47.498;8.738;2022-08-23T03:23:40;6.20;;;4.28;;
47147;SDS011;32900;47.498;8.738;2022-08-23T03:26:07;8.48;;;5.28;;
47147;SDS011;32900;47.498;8.738;2022-08-23T03:28:37;8.60;;;4.40;;
47147;SDS011;32900;47.498;8.738;2022-08-23T03:31:05;7.60;;;4.68;;
47147;SDS011;32900;47.498;8.738;2022-08-23T03:33:33;9.68;;;4.95;;
47147;SDS011;32900;47.498;8.738;2022-08-23T03:36:01;8.70;;;4.22;;
47147;SDS011;32900;47.498;8.738;2022-08-23T03:38:29;7.85;;;4.60;;
47147;SDS011;32900;47.498;8.738;2022-08-23T03:40:56;7.35;;;4.13;;
47147;SDS011;32900;47.498;8.738;2022-08-23T03:43:23;6.60;;;4.18;;
47147;SDS011;32900;47.498;8.738;2022-08-23T03:45:50;5.80;;;3.95;;
47147;SDS011;32900;47.498;8.738;2022-08-23T03:48:17;6.25;;;4.43;;
47147;SDS011;32900;47.498;8.738;2022-08-23T03:50:44;8.63;;;4.30;;
47147;SDS011;32900;47.498;8.738;2022-08-23T03:53:11;8.95;;;4.90;;
47147;SDS011;32900;47.498;8.738;2022-08-23T03:55:38;8.82;;;4.90;;
47147;SDS011;32900;47.498;8.738;2022-08-23T03:58:08;6.40;;;4.63;;
47147;SDS011;32900;47.498;8.738;2022-08-23T04:00:35;7.63;;;4.40;;
47147;SDS011;32900;47.498;8.738;2022-08-23T04:03:02;8.05;;;4.70;;
47147;SDS011;32900;47.498;8.738;2022-08-23T04:05:29;7.88;;;4.45;;
47147;SDS011;32900;47.498;8.738;2022-08-23T04:07:56;6.10;;;4.28;;
47147;SDS011;32900;47.498;8.738;2022-08-23T04:10:23;7.38;;;4.85;;
47147;SDS011;32900;47.498;8.738;2022-08-23T04:12:50;6.45;;;4.40;;
47147;SDS011;32900;47.498;8.738;2022-08-23T04:15:19;7.20;;;4.57;;
47147;SDS011;32900;47.498;8.738;2022-08-23T04:17:46;7.63;;;4.53;;
47147;SDS011;32900;47.498;8.738;2022-08-23T04:20:13;7.72;;;4.53;;
47147;SDS011;32900;47.498;8.738;2022-08-23T04:22:40;8.25;;;4.60;;
47147;SDS011;32900;47.498;8.738;2022-08-23T04:25:09;6.55;;;4.03;;
47147;SDS011;32900;47.498;8.738;2022-08-23T04:27:56;6.60;;;4.47;;
47147;SDS011;32900;47.498;8.738;2022-08-23T04:30:23;7.28;;;4.50;;
47147;SDS011;32900;47.498;8.738;2022-08-23T04:32:50;7.35;;;4.30;;
47147;SDS011;32900;47.498;8.738;2022-08-23T04:35:17;7.22;;;4.68;;
47147;SDS011;32900;47.498;8.738;2022-08-23T04:37:44;7.07;;;4.22;;
47147;SDS011;32900;47.498;8.738;2022-08-23T04:40:11;6.85;;;4.45;;
47147;SDS011;32900;47.498;8.738;2022-08-23T04:42:57;7.50;;;4.65;;
47147;SDS011;32900;47.498;8.738;2022-08-23T04:45:23;10.25;;;4.13;;
47147;SDS011;32900;47.498;8.738;2022-08-23T04:47:52;8.25;;;4.93;;
47147;SDS011;32900;47.498;8.738;2022-08-23T04:50:19;6.15;;;4.65;;
47147;SDS011;32900;47.498;8.738;2022-08-23T04:52:46;6.78;;;5.00;;
47147;SDS011;32900;47.498;8.738;2022-08-23T04:55:13;12.43;;;5.07;;
47147;SDS011;32900;47.498;8.738;2022-08-23T04:57:40;7.53;;;4.45;;
47147;SDS011;32900;47.498;8.738;2022-08-23T05:00:08;9.75;;;4.20;;
47147;SDS011;32900;47.498;8.738;2022-08-23T05:02:39;6.40;;;4.18;;
47147;SDS011;32900;47.498;8.738;2022-08-23T05:05:09;7.82;;;4.82;;
47147;SDS011;32900;47.498;8.738;2022-08-23T05:07:37;6.97;;;4.82;;
47147;SDS011;32900;47.498;8.738;2022-08-23T05:10:09;6.80;;;4.97;;
47147;SDS011;32900;47.498;8.738;2022-08-23T05:12:38;6.05;;;4.40;;
47147;SDS011;32900;47.498;8.738;2022-08-23T05:15:05;9.73;;;4.40;;
47147;SDS011;32900;47.498;8.738;2022-08-23T05:17:34;5.13;;;3.80;;
47147;SDS011;32900;47.498;8.738;2022-08-23T05:20:02;9.88;;;5.25;;
47147;SDS011;32900;47.498;8.738;2022-08-23T05:22:33;8.52;;;4.80;;
47147;SDS011;32900;47.498;8.738;2022-08-23T05:25:01;7.68;;;4.95;;
47147;SDS011;32900;47.498;8.738;2022-08-23T05:27:28;7.38;;;4.45;;
47147;SDS011;32900;47.498;8.738;2022-08-23T05:29:55;7.70;;;4.95;;
47147;SDS011;32900;47.498;8.738;2022-08-23T05:32:22;7.68;;;4.57;;
47147;SDS011;32900;47.498;8.738;2022-08-23T05:34:49;7.50;;;4.68;;
47147;SDS011;32900;47.498;8.738;2022-08-23T05:37:16;8.65;;;5.10;;
47147;SDS011;32900;47.498;8.738;2022-08-23T05:39:43;6.25;;;4.50;;
47147;SDS011;32900;47.498;8.738;2022-08-23T05:42:12;9.75;;;5.38;;
47147;SDS011;32900;47.498;8.738;2022-08-23T05:44:40;8.60;;;5.03;;
47147;SDS011;32900;47.498;8.738;2022-08-23T05:47:09;7.43;;;4.80;;
47147;SDS011;32900;47.498;8.738;2022-08-23T05:49:40;6.68;;;4.57;;
47147;SDS011;32900;47.498;8.738;2022-08-23T05:52:08;8.43;;;4.50;;
47147;SDS011;32900;47.498;8.738;2022-08-23T05:54:37;7.07;;;4.55;;
47147;SDS011;32900;47.498;8.738;2022-08-23T05:57:04;8.63;;;5.55;;
47147;SDS011;32900;47.498;8.738;2022-08-23T05:59:31;6.90;;;4.85;;
47147;SDS011;32900;47.498;8.738;2022-08-23T06:01:58;7.72;;;4.80;;
47147;SDS011;32900;47.498;8.738;2022-08-23T06:04:24;8.60;;;5.00;;
47147;SDS011;32900;47.498;8.738;2022-08-23T06:06:51;6.40;;;4.72;;
47147;SDS011;32900;47.498;8.738;2022-08-23T06:09:22;9.63;;;4.95;;
47147;SDS011;32900;47.498;8.738;2022-08-23T06:11:49;7.82;;;4.68;;
47147;SDS011;32900;47.498;8.738;2022-08-23T06:14:16;6.35;;;4.22;;
47147;SDS011;32900;47.498;8.738;2022-08-23T06:16:44;6.68;;;4.15;;
47147;SDS011;32900;47.498;8.738;2022-08-23T06:19:13;7.10;;;4.38;;
47147;SDS011;32900;47.498;8.738;2022-08-23T06:21:41;8.43;;;4.75;;
47147;SDS011;32900;47.498;8.738;2022-08-23T06:24:08;8.93;;;5.13;;
47147;SDS011;32900;47.498;8.738;2022-08-23T06:26:37;7.93;;;5.43;;
47147;SDS011;32900;47.498;8.738;2022-08-23T06:29:08;7.88;;;4.70;;
47147;SDS011;32900;47.498;8.738;2022-08-23T06:31:41;12.55;;;5.20;;
47147;SDS011;32900;47.498;8.738;2022-08-23T06:36:46;11.68;;;6.00;;
47147;SDS011;32900;47.498;8.738;2022-08-23T06:39:15;9.70;;;5.28;;
47147;SDS011;32900;47.498;8.738;2022-08-23T06:41:43;8.80;;;5.60;;
47147;SDS011;32900;47.498;8.738;2022-08-23T06:44:10;9.52;;;5.80;;
47147;SDS011;32900;47.498;8.738;2022-08-23T06:46:39;10.57;;;6.00;;
47147;SDS011;32900;47.498;8.738;2022-08-23T06:49:06;9.40;;;5.60;;
47147;SDS011;32900;47.498;8.738;2022-08-23T06:51:36;9.90;;;6.10;;
47147;SDS011;32900;47.498;8.738;2022-08-23T06:54:09;13.43;;;6.20;;
47147;SDS011;32900;47.498;8.738;2022-08-23T06:56:38;8.98;;;6.18;;
47147;SDS011;32900;47.498;8.738;2022-08-23T06:59:07;9.23;;;5.43;;
47147;SDS011;32900;47.498;8.738;2022-08-23T07:01:41;9.52;;;5.22;;
47147;SDS011;32900;47.498;8.738;2022-08-23T07:04:12;11.10;;;6.00;;
47147;SDS011;32900;47.498;8.738;2022-08-23T07:06:42;11.43;;;5.85;;
47147;SDS011;32900;47.498;8.738;2022-08-23T07:09:09;9.35;;;5.65;;
47147;SDS011;32900;47.498;8.738;2022-08-23T07:11:37;9.60;;;5.88;;
47147;SDS011;32900;47.498;8.738;2022-08-23T07:14:06;10.68;;;6.07;;
47147;SDS011;32900;47.498;8.738;2022-08-23T07:16:37;6.87;;;4.67;;
47147;SDS011;32900;47.498;8.738;2022-08-23T07:19:11;10.48;;;6.30;;
47147;SDS011;32900;47.498;8.738;2022-08-23T07:21:38;7.63;;;5.22;;
47147;SDS011;32900;47.498;8.738;2022-08-23T07:24:14;7.45;;;4.90;;
47147;SDS011;32900;47.498;8.738;2022-08-23T07:26:43;7.75;;;5.57;;
47147;SDS011;32900;47.498;8.738;2022-08-23T07:29:12;8.77;;;4.85;;
47147;SDS011;32900;47.498;8.738;2022-08-23T07:31:41;8.93;;;5.13;;
47147;SDS011;32900;47.498;8.738;2022-08-23T07:34:13;8.52;;;5.35;;
47147;SDS011;32900;47.498;8.738;2022-08-23T07:36:41;12.23;;;5.30;;
47147;SDS011;32900;47.498;8.738;2022-08-23T07:39:10;8.57;;;4.55;;
47147;SDS011;32900;47.498;8.738;2022-08-23T07:41:37;7.47;;;4.97;;
47147;SDS011;32900;47.498;8.738;2022-08-23T07:44:05;8.27;;;5.10;;
47147;SDS011;32900;47.498;8.738;2022-08-23T07:46:35;6.25;;;4.65;;
47147;SDS011;32900;47.498;8.738;2022-08-23T07:49:03;8.02;;;4.97;;
47147;SDS011;32900;47.498;8.738;2022-08-23T07:51:32;7.93;;;5.13;;
47147;SDS011;32900;47.498;8.738;2022-08-23T07:54:05;9.05;;;5.38;;
47147;SDS011;32900;47.498;8.738;2022-08-23T07:56:34;9.13;;;5.05;;
47147;SDS011;32900;47.498;8.738;2022-08-23T07:59:04;8.90;;;5.03;;
47147;SDS011;32900;47.498;8.738;2022-08-23T08:01:31;8.65;;;4.80;;
47147;SDS011;32900;47.498;8.738;2022-08-23T08:03:59;7.78;;;4.18;;
47147;SDS011;32900;47.498;8.738;2022-08-23T08:06:28;9.52;;;4.63;;
47147;SDS011;32900;47.498;8.738;2022-08-23T08:08:57;6.43;;;4.13;;
47147;SDS011;32900;47.498;8.738;2022-08-23T08:11:26;8.73;;;5.30;;
47147;SDS011;32900;47.498;8.738;2022-08-23T08:14:01;7.30;;;4.85;;
47147;SDS011;32900;47.498;8.738;2022-08-23T08:19:02;7.13;;;5.10;;
47147;SDS011;32900;47.498;8.738;2022-08-23T08:21:33;9.80;;;5.57;;
47147;SDS011;32900;47.498;8.738;2022-08-23T08:24:04;8.93;;;5.15;;
47147;SDS011;32900;47.498;8.738;2022-08-23T08:26:32;9.02;;;5.20;;
47147;SDS011;32900;47.498;8.738;2022-08-23T08:29:00;10.75;;;5.35;;
47147;SDS011;32900;47.498;8.738;2022-08-23T08:31:27;8.93;;;5.40;;
47147;SDS011;32900;47.498;8.738;2022-08-23T08:33:54;8.30;;;5.40;;
47147;SDS011;32900;47.498;8.738;2022-08-23T08:36:28;8.38;;;5.18;;
47147;SDS011;32900;47.498;8.738;2022-08-23T08:39:03;9.43;;;5.55;;
47147;SDS011;32900;47.498;8.738;2022-08-23T08:41:39;8.65;;;4.85;;
47147;SDS011;32900;47.498;8.738;2022-08-23T08:44:13;9.23;;;5.57;;
47147;SDS011;32900;47.498;8.738;2022-08-23T08:47:05;8.65;;;5.35;;
47147;SDS011;32900;47.498;8.738;2022-08-23T08:49:41;9.32;;;5.97;;
47147;SDS011;32900;47.498;8.738;2022-08-23T08:52:24;16.83;;;6.68;;
47147;SDS011;32900;47.498;8.738;2022-08-23T08:55:05;7.70;;;5.32;;
47147;SDS011;32900;47.498;8.738;2022-08-23T08:57:41;8.10;;;5.03;;
47147;SDS011;32900;47.498;8.738;2022-08-23T09:00:11;7.82;;;5.45;;
47147;SDS011;32900;47.498;8.738;2022-08-23T09:02:40;7.78;;;4.82;;
47147;SDS011;32900;47.498;8.738;2022-08-23T09:05:09;9.00;;;5.90;;
47147;SDS011;32900;47.498;8.738;2022-08-23T09:18:55;8.73;;;4.80;;
47147;SDS011;32900;47.498;8.738;2022-08-23T09:21:23;10.30;;;5.20;;
47147;SDS011;32900;47.498;8.738;2022-08-23T09:23:53;8.05;;;4.70;;
47147;SDS011;32900;47.498;8.738;2022-08-23T09:26:27;8.70;;;5.18;;
47147;SDS011;32900;47.498;8.738;2022-08-23T09:28:58;7.03;;;4.57;;
47147;SDS011;32900;47.498;8.738;2022-08-23T09:31:56;7.70;;;4.38;;
47147;SDS011;32900;47.498;8.738;2022-08-23T09:37:05;8.27;;;4.30;;
47147;SDS011;32900;47.498;8.738;2022-08-23T09:39:51;7.72;;;4.93;;
47147;SDS011;32900;47.498;8.738;2022-08-23T09:44:54;7.70;;;3.97;;
47147;SDS011;32900;47.498;8.738;2022-08-23T09:47:44;8.10;;;3.85;;
47147;SDS011;32900;47.498;8.738;2022-08-23T09:50:20;7.50;;;3.63;;
47147;SDS011;32900;47.498;8.738;2022-08-23T09:52:58;6.65;;;4.10;;
47147;SDS011;32900;47.498;8.738;2022-08-23T09:55:38;6.43;;;3.80;;
47147;SDS011;32900;47.498;8.738;2022-08-23T09:58:26;6.85;;;3.60;;
47147;SDS011;32900;47.498;8.738;2022-08-23T10:01:08;9.90;;;3.72;;
47147;SDS011;32900;47.498;8.738;2022-08-23T10:03:44;7.32;;;3.47;;
47147;SDS011;32900;47.498;8.738;2022-08-23T10:06:12;5.82;;;2.97;;
47147;SDS011;32900;47.498;8.738;2022-08-23T10:08:56;5.82;;;3.25;;
47147;SDS011;32900;47.498;8.738;2022-08-23T10:13:56;4.53;;;2.35;;
47147;SDS011;32900;47.498;8.738;2022-08-23T10:16:39;4.78;;;2.67;;
47147;SDS011;32900;47.498;8.738;2022-08-23T10:33:35;5.15;;;2.28;;
47147;SDS011;32900;47.498;8.738;2022-08-23T10:36:28;6.60;;;2.40;;
47147;SDS011;32900;47.498;8.738;2022-08-23T10:39:06;5.63;;;2.33;;
47147;SDS011;32900;47.498;8.738;2022-08-23T10:41:58;5.13;;;2.50;;
47147;SDS011;32900;47.498;8.738;2022-08-23T10:49:48;4.82;;;2.30;;
47147;SDS011;32900;47.498;8.738;2022-08-23T10:52:28;5.82;;;2.20;;
47147;SDS011;32900;47.498;8.738;2022-08-23T10:55:06;5.80;;;1.90;;
47147;SDS011;32900;47.498;8.738;2022-08-23T10:58:00;6.90;;;2.20;;
47147;SDS011;32900;47.498;8.738;2022-08-23T11:00:30;5.88;;;2.10;;
47147;SDS011;32900;47.498;8.738;2022-08-23T11:11:42;5.53;;;2.20;;
47147;SDS011;32900;47.498;8.738;2022-08-23T11:14:25;4.25;;;1.80;;
47147;SDS011;32900;47.498;8.738;2022-08-23T11:17:04;7.22;;;1.80;;
47147;SDS011;32900;47.498;8.738;2022-08-23T11:19:47;5.35;;;1.60;;
47147;SDS011;32900;47.498;8.738;2022-08-23T11:22:32;6.88;;;1.90;;
47147;SDS011;32900;47.498;8.738;2022-08-23T11:27:47;5.30;;;1.80;;
47147;SDS011;32900;47.498;8.738;2022-08-23T11:33:13;4.00;;;1.70;;
47147;SDS011;32900;47.498;8.738;2022-08-23T11:49:02;6.45;;;1.92;;
47147;SDS011;32900;47.498;8.738;2022-08-23T12:08:42;6.32;;;1.98;;
47147;SDS011;32900;47.498;8.738;2022-08-23T12:19:53;5.13;;;1.90;;
47147;SDS011;32900;47.498;8.738;2022-08-23T12:23:06;4.93;;;1.85;;
47147;SDS011;32900;47.498;8.738;2022-08-23T12:25:40;3.88;;;1.73;;
47147;SDS011;32900;47.498;8.738;2022-08-23T12:31:24;2.88;;;1.77;;
47147;SDS011;32900;47.498;8.738;2022-08-23T12:36:49;2.65;;;1.70;;
47147;SDS011;32900;47.498;8.738;2022-08-23T12:39:50;5.43;;;1.80;;
47147;SDS011;32900;47.498;8.738;2022-08-23T12:42:25;4.07;;;1.75;;
47147;SDS011;32900;47.498;8.738;2022-08-23T12:45:13;3.75;;;1.90;;
47147;SDS011;32900;47.498;8.738;2022-08-23T12:47:43;5.18;;;1.60;;
47147;SDS011;32900;47.498;8.738;2022-08-23T12:50:39;3.45;;;1.70;;
47147;SDS011;32900;47.498;8.738;2022-08-23T12:53:12;4.03;;;1.67;;
47147;SDS011;32900;47.498;8.738;2022-08-23T12:55:43;4.03;;;1.77;;
47147;SDS011;32900;47.498;8.738;2022-08-23T12:58:13;3.77;;;1.50;;
47147;SDS011;32900;47.498;8.738;2022-08-23T13:00:50;5.05;;;1.70;;
47147;SDS011;32900;47.498;8.738;2022-08-23T13:06:05;4.20;;;1.70;;
47147;SDS011;32900;47.498;8.738;2022-08-23T13:08:38;3.13;;;1.65;;
47147;SDS011;32900;47.498;8.738;2022-08-23T13:11:10;4.70;;;2.00;;
47147;SDS011;32900;47.498;8.738;2022-08-23T13:13:39;6.15;;;3.05;;
47147;SDS011;32900;47.498;8.738;2022-08-23T13:19:17;5.40;;;1.90;;
47147;SDS011;32900;47.498;8.738;2022-08-23T13:21:47;2.95;;;1.40;;
47147;SDS011;32900;47.498;8.738;2022-08-23T13:24:34;2.90;;;1.65;;
47147;SDS011;32900;47.498;8.738;2022-08-23T13:27:12;4.53;;;1.80;;
47147;SDS011;32900;47.498;8.738;2022-08-23T13:29:51;4.45;;;1.65;;
47147;SDS011;32900;47.498;8.738;2022-08-23T13:32:40;4.95;;;1.45;;
47147;SDS011;32900;47.498;8.738;2022-08-23T13:37:51;3.72;;;1.40;;
47147;SDS011;32900;47.498;8.738;2022-08-23T13:40:21;2.67;;;1.30;;
47147;SDS011;32900;47.498;8.738;2022-08-23T13:45:28;3.55;;;1.33;;
47147;SDS011;32900;47.498;8.738;2022-08-23T13:50:39;2.72;;;1.55;;
47147;SDS011;32900;47.498;8.738;2022-08-23T13:53:06;3.92;;;1.30;;
47147;SDS011;32900;47.498;8.738;2022-08-23T13:58:38;5.53;;;1.23;;
47147;SDS011;32900;47.498;8.738;2022-08-23T14:01:11;4.05;;;1.77;;
47147;SDS011;32900;47.498;8.738;2022-08-23T14:03:44;4.10;;;1.50;;
47147;SDS011;32900;47.498;8.738;2022-08-23T14:06:11;3.05;;;1.50;;
47147;SDS011;32900;47.498;8.738;2022-08-23T14:08:38;4.53;;;1.60;;
47147;SDS011;32900;47.498;8.738;2022-08-23T14:11:05;3.65;;;1.73;;
47147;SDS011;32900;47.498;8.738;2022-08-23T14:13:32;3.63;;;1.60;;
47147;SDS011;32900;47.498;8.738;2022-08-23T14:16:06;3.40;;;1.77;;
47147;SDS011;32900;47.498;8.738;2022-08-23T14:18:54;2.67;;;1.40;;
47147;SDS011;32900;47.498;8.738;2022-08-23T14:21:41;3.08;;;1.40;;
47147;SDS011;32900;47.498;8.738;2022-08-23T14:24:08;2.90;;;1.40;;
47147;SDS011;32900;47.498;8.738;2022-08-23T14:26:35;7.53;;;2.13;;
47147;SDS011;32900;47.498;8.738;2022-08-23T14:29:03;4.75;;;1.77;;
47147;SDS011;32900;47.498;8.738;2022-08-23T14:31:30;3.35;;;1.67;;
47147;SDS011;32900;47.498;8.738;2022-08-23T14:33:58;2.80;;;1.65;;
47147;SDS011;32900;47.498;8.738;2022-08-23T14:36:27;3.53;;;1.95;;
47147;SDS011;32900;47.498;8.738;2022-08-23T14:38:55;5.05;;;1.65;;
47147;SDS011;32900;47.498;8.738;2022-08-23T14:41:22;3.13;;;1.63;;
47147;SDS011;32900;47.498;8.738;2022-08-23T14:43:52;5.90;;;1.77;;
47147;SDS011;32900;47.498;8.738;2022-08-23T14:46:20;5.20;;;2.10;;
47147;SDS011;32900;47.498;8.738;2022-08-23T14:48:48;4.30;;;1.80;;
47147;SDS011;32900;47.498;8.738;2022-08-23T14:51:26;5.28;;;1.83;;
47147;SDS011;32900;47.498;8.738;2022-08-23T14:53:53;3.72;;;1.67;;
47147;SDS011;32900;47.498;8.738;2022-08-23T14:56:20;4.10;;;1.77;;
47147;SDS011;32900;47.498;8.738;2022-08-23T14:58:48;3.90;;;1.90;;
47147;SDS011;32900;47.498;8.738;2022-08-23T15:01:16;4.45;;;1.60;;
47147;SDS011;32900;47.498;8.738;2022-08-23T15:03:44;3.03;;;1.52;;
47147;SDS011;32900;47.498;8.738;2022-08-23T15:06:12;2.33;;;1.40;;
47147;SDS011;32900;47.498;8.738;2022-08-23T15:08:39;3.65;;;1.70;;
47147;SDS011;32900;47.498;8.738;2022-08-23T15:11:07;4.38;;;1.85;;
47147;SDS011;32900;47.498;8.738;2022-08-23T15:13:55;2.75;;;1.45;;
47147;SDS011;32900;47.498;8.738;2022-08-23T15:16:25;4.32;;;1.80;;
47147;SDS011;32900;47.498;8.738;2022-08-23T15:18:52;4.03;;;1.70;;
47147;SDS011;32900;47.498;8.738;2022-08-23T15:21:20;4.53;;;1.63;;
47147;SDS011;32900;47.498;8.738;2022-08-23T15:23:48;3.30;;;1.50;;
47147;SDS011;32900;47.498;8.738;2022-08-23T15:26:16;2.83;;;1.58;;
47147;SDS011;32900;47.498;8.738;2022-08-23T15:28:48;4.05;;;1.90;;
47147;SDS011;32900;47.498;8.738;2022-08-23T15:31:16;3.03;;;1.65;;
47147;SDS011;32900;47.498;8.738;2022-08-23T15:33:44;5.75;;;2.13;;
47147;SDS011;32900;47.498;8.738;2022-08-23T15:36:12;3.92;;;1.80;;
47147;SDS011;32900;47.498;8.738;2022-08-23T15:38:41;3.88;;;1.63;;
47147;SDS011;32900;47.498;8.738;2022-08-23T15:41:09;3.88;;;1.80;;
47147;SDS011;32900;47.498;8.738;2022-08-23T15:43:36;5.38;;;1.92;;
47147;SDS011;32900;47.498;8.738;2022-08-23T15:46:11;5.57;;;2.30;;
47147;SDS011;32900;47.498;8.738;2022-08-23T15:49:04;4.10;;;2.10;;
47147;SDS011;32900;47.498;8.738;2022-08-23T15:51:35;4.30;;;1.88;;
47147;SDS011;32900;47.498;8.738;2022-08-23T15:54:02;6.95;;;1.90;;
47147;SDS011;32900;47.498;8.738;2022-08-23T15:56:31;6.95;;;1.80;;
47147;SDS011;32900;47.498;8.738;2022-08-23T15:59:03;5.15;;;2.05;;
47147;SDS011;32900;47.498;8.738;2022-08-23T16:01:30;3.92;;;1.73;;
47147;SDS011;32900;47.498;8.738;2022-08-23T16:03:59;4.35;;;1.90;;
47147;SDS011;32900;47.498;8.738;2022-08-23T16:06:27;4.80;;;2.00;;
47147;SDS011;32900;47.498;8.738;2022-08-23T16:08:59;3.92;;;1.80;;
47147;SDS011;32900;47.498;8.738;2022-08-23T16:11:26;3.92;;;1.80;;
47147;SDS011;32900;47.498;8.738;2022-08-23T16:13:54;4.22;;;1.77;;
47147;SDS011;32900;47.498;8.738;2022-08-23T16:16:24;3.85;;;1.67;;
47147;SDS011;32900;47.498;8.738;2022-08-23T16:18:55;4.43;;;1.95;;
47147;SDS011;32900;47.498;8.738;2022-08-23T16:21:23;3.00;;;1.60;;
47147;SDS011;32900;47.498;8.738;2022-08-23T16:23:52;3.63;;;1.85;;
47147;SDS011;32900;47.498;8.738;2022-08-23T16:26:21;3.97;;;2.20;;
47147;SDS011;32900;47.498;8.738;2022-08-23T16:29:00;5.05;;;1.88;;
47147;SDS011;32900;47.498;8.738;2022-08-23T16:31:29;3.13;;;1.63;;
47147;SDS011;32900;47.498;8.738;2022-08-23T16:34:05;4.72;;;1.88;;
47147;SDS011;32900;47.498;8.738;2022-08-23T16:36:37;2.70;;;1.55;;
47147;SDS011;32900;47.498;8.738;2022-08-23T16:39:06;2.33;;;1.73;;
47147;SDS011;32900;47.498;8.738;2022-08-23T16:41:33;4.72;;;1.55;;
47147;SDS011;32900;47.498;8.738;2022-08-23T16:44:00;3.95;;;2.15;;
47147;SDS011;32900;47.498;8.738;2022-08-23T16:46:27;4.70;;;1.60;;
47147;SDS011;32900;47.498;8.738;2022-08-23T16:48:54;4.00;;;1.90;;
47147;SDS011;32900;47.498;8.738;2022-08-23T16:51:21;3.85;;;1.77;;
47147;SDS011;32900;47.498;8.738;2022-08-23T16:53:48;3.05;;;1.70;;
47147;SDS011;32900;47.498;8.738;2022-08-23T16:56:28;4.03;;;1.80;;
47147;SDS011;32900;47.498;8.738;2022-08-23T16:58:59;4.22;;;1.85;;
47147;SDS011;32900;47.498;8.738;2022-08-23T17:01:27;4.80;;;2.00;;
47147;SDS011;32900;47.498;8.738;2022-08-23T17:03:54;4.57;;;1.52;;
47147;SDS011;32900;47.498;8.738;2022-08-23T17:06:21;3.72;;;1.83;;
47147;SDS011;32900;47.498;8.738;2022-08-23T17:08:48;6.38;;;2.53;;
47147;SDS011;32900;47.498;8.738;2022-08-23T17:11:16;4.53;;;2.60;;
47147;SDS011;32900;47.498;8.738;2022-08-23T17:13:44;4.40;;;2.40;;
47147;SDS011;32900;47.498;8.738;2022-08-23T17:16:12;4.35;;;2.50;;
47147;SDS011;32900;47.498;8.738;2022-08-23T17:18:39;6.32;;;2.30;;
47147;SDS011;32900;47.498;8.738;2022-08-23T17:21:06;4.75;;;2.15;;
47147;SDS011;32900;47.498;8.738;2022-08-23T17:23:34;6.03;;;2.55;;
47147;SDS011;32900;47.498;8.738;2022-08-23T17:26:06;3.65;;;2.15;;
47147;SDS011;32900;47.498;8.738;2022-08-23T17:28:33;5.97;;;2.75;;
47147;SDS011;32900;47.498;8.738;2022-08-23T17:31:00;5.35;;;3.00;;
47147;SDS011;32900;47.498;8.738;2022-08-23T17:33:27;3.90;;;2.30;;
47147;SDS011;32900;47.498;8.738;2022-08-23T17:35:54;4.88;;;2.58;;
47147;SDS011;32900;47.498;8.738;2022-08-23T17:38:20;4.75;;;2.13;;
47147;SDS011;32900;47.498;8.738;2022-08-23T17:40:47;5.07;;;2.30;;
47147;SDS011;32900;47.498;8.738;2022-08-23T17:43:14;2.75;;;1.67;;
47147;SDS011;32900;47.498;8.738;2022-08-23T17:45:47;5.13;;;1.77;;
47147;SDS011;32900;47.498;8.738;2022-08-23T17:48:17;7.63;;;1.90;;
47147;SDS011;32900;47.498;8.738;2022-08-23T17:50:44;3.85;;;2.30;;
47147;SDS011;32900;47.498;8.738;2022-08-23T17:53:12;3.92;;;1.73;;